createdAt,value
2024-02-19T00:01:15.382Z,14.41
2024-02-19T00:03:42.235Z,14.61
2024-02-19T00:06:10.480Z,14.51
2024-02-19T00:08:37.346Z,14.41
2024-02-19T00:11:04.146Z,14.09
2024-02-19T00:13:31.270Z,14.21
2024-02-19T00:15:58.085Z,14.47
2024-02-19T00:18:24.997Z,14.49
2024-02-19T00:20:51.707Z,14.42
2024-02-19T00:23:18.568Z,14.60
2024-02-19T00:25:45.198Z,14.74
2024-02-19T00:28:12.462Z,14.63
2024-02-19T00:30:40.633Z,14.43
2024-02-19T00:33:07.706Z,13.74
2024-02-19T00:35:34.504Z,14.29
2024-02-19T00:38:01.527Z,14.52
2024-02-19T00:40:28.310Z,14.26
2024-02-19T00:42:55.502Z,13.85
2024-02-19T00:45:22.469Z,14.04
2024-02-19T00:47:49.284Z,14.23
2024-02-19T00:50:16.082Z,14.34
2024-02-19T00:52:43.037Z,14.00
2024-02-19T00:55:10.238Z,13.87
2024-02-19T00:57:38.454Z,13.06
2024-02-19T01:00:06.750Z,13.15
2024-02-19T01:02:33.900Z,13.00
2024-02-19T01:05:01.194Z,13.00
2024-02-19T01:07:28.168Z,12.86
2024-02-19T01:09:55.088Z,12.86
2024-02-19T01:12:22.002Z,13.27
2024-02-19T01:14:49.009Z,13.38
2024-02-19T01:17:16.206Z,13.52
2024-02-19T01:19:43.582Z,13.86
2024-02-19T01:22:12.657Z,13.29
2024-02-19T01:24:39.828Z,14.22
2024-02-19T01:27:07.826Z,14.22
2024-02-19T01:29:35.407Z,14.16
2024-02-19T01:32:02.194Z,14.42
2024-02-19T01:34:31.206Z,14.25
2024-02-19T01:36:58.942Z,14.05
2024-02-19T01:39:26.279Z,14.16
2024-02-19T01:41:53.014Z,14.04
2024-02-19T01:44:19.731Z,14.22
2024-02-19T01:46:47.072Z,13.98
2024-02-19T01:49:14.113Z,13.62
2024-02-19T01:51:41.201Z,14.14
2024-02-19T01:54:09.687Z,13.81
2024-02-19T01:56:37.800Z,14.30
2024-02-19T01:59:07.456Z,13.82
2024-02-19T02:01:35.783Z,14.30
2024-02-19T02:04:03.240Z,13.94
2024-02-19T02:06:30.201Z,14.24
2024-02-19T02:08:57.208Z,13.98
2024-02-19T02:11:23.942Z,14.34
2024-02-19T02:13:50.866Z,14.18
2024-02-19T02:16:27.560Z,14.23
2024-02-19T02:18:55.226Z,13.92
2024-02-19T02:21:22.379Z,13.79
2024-02-19T02:23:50.175Z,14.28
2024-02-19T02:26:16.949Z,14.45
2024-02-19T02:28:43.733Z,13.81
2024-02-19T02:31:10.521Z,14.01
2024-02-19T02:33:37.694Z,14.26
2024-02-19T02:36:04.785Z,13.94
2024-02-19T02:38:32.425Z,13.67
2024-02-19T02:40:59.129Z,13.67
2024-02-19T02:43:25.972Z,13.59
2024-02-19T02:45:53.726Z,13.68
2024-02-19T02:48:20.993Z,13.43
2024-02-19T02:50:47.805Z,13.99
2024-02-19T02:53:16.492Z,13.70
2024-02-19T02:55:43.569Z,14.21
2024-02-19T02:58:10.406Z,13.47
2024-02-19T03:00:37.284Z,13.63
2024-02-19T03:03:04.358Z,14.01
2024-02-19T03:05:31.137Z,14.29
2024-02-19T03:07:58.421Z,13.97
2024-02-19T03:10:25.339Z,13.62
2024-02-19T03:12:52.323Z,13.59
2024-02-19T03:15:19.568Z,13.90
2024-02-19T03:17:46.493Z,13.31
2024-02-19T03:20:14.885Z,13.24
2024-02-19T03:22:44.855Z,13.34
2024-02-19T03:25:11.810Z,14.12
2024-02-19T03:27:39.277Z,14.43
2024-02-19T03:30:07.892Z,13.93
2024-02-19T03:32:34.837Z,13.65
2024-02-19T03:35:02.597Z,13.99
2024-02-19T03:37:29.467Z,13.41
2024-02-19T03:39:56.290Z,13.70
2024-02-19T03:42:23.011Z,13.42
2024-02-19T03:44:49.746Z,13.30
2024-02-19T03:47:16.513Z,13.31
2024-02-19T03:49:43.259Z,13.18
2024-02-19T03:52:10.113Z,13.38
2024-02-19T03:54:37.037Z,13.79
2024-02-19T03:57:04.837Z,13.87
2024-02-19T03:59:32.958Z,13.43
2024-02-19T04:02:01.194Z,13.14
2024-02-19T04:04:28.114Z,13.12
2024-02-19T04:06:55.271Z,13.15
2024-02-19T04:09:22.520Z,12.96
2024-02-19T04:11:49.421Z,13.12
2024-02-19T04:14:16.954Z,13.40
2024-02-19T04:16:43.966Z,13.39
2024-02-19T04:19:10.941Z,13.49
2024-02-19T04:21:44.330Z,13.47
2024-02-19T04:24:12.613Z,13.51
2024-02-19T04:26:40.030Z,13.18
2024-02-19T04:29:06.914Z,13.01
2024-02-19T04:31:33.792Z,12.92
2024-02-19T04:34:00.787Z,13.05
2024-02-19T04:36:27.542Z,13.06
2024-02-19T04:38:54.444Z,13.75
2024-02-19T04:41:21.561Z,13.08
2024-02-19T04:43:48.322Z,13.04
2024-02-19T04:46:15.170Z,12.87
2024-02-19T04:48:42.469Z,13.17
2024-02-19T04:51:09.256Z,12.95
2024-02-19T04:53:36.287Z,12.50
2024-02-19T04:56:03.072Z,13.06
2024-02-19T04:58:29.957Z,13.25
2024-02-19T05:00:56.758Z,12.73
2024-02-19T05:03:23.574Z,12.91
2024-02-19T05:05:50.519Z,13.05
2024-02-19T05:08:17.615Z,13.19
2024-02-19T05:10:44.868Z,13.33
2024-02-19T05:13:11.721Z,12.76
2024-02-19T05:15:38.482Z,12.70
2024-02-19T05:18:05.626Z,13.05
2024-02-19T05:20:32.454Z,13.08
2024-02-19T05:22:59.453Z,12.84
2024-02-19T05:25:26.312Z,12.74
2024-02-19T05:27:53.900Z,12.30
2024-02-19T05:30:23.248Z,12.55
2024-02-19T05:32:50.569Z,13.05
2024-02-19T05:35:17.482Z,12.74
2024-02-19T05:37:44.346Z,13.05
2024-02-19T05:40:12.151Z,12.80
2024-02-19T05:42:39.153Z,12.50
2024-02-19T05:45:06.562Z,12.48
2024-02-19T05:47:36.153Z,12.96
2024-02-19T05:50:03.381Z,12.70
2024-02-19T05:52:30.340Z,12.60
2024-02-19T05:54:59.716Z,12.80
2024-02-19T05:57:27.007Z,12.61
2024-02-19T05:59:56.531Z,13.23
2024-02-19T06:02:24.870Z,12.81
2024-02-19T06:04:51.976Z,13.01
2024-02-19T06:07:18.864Z,12.92
2024-02-19T06:09:45.782Z,12.54
2024-02-19T06:12:12.627Z,12.88
2024-02-19T06:14:39.633Z,13.28
2024-02-19T06:17:06.586Z,13.00
2024-02-19T06:19:33.540Z,12.96
2024-02-19T06:22:00.624Z,13.52
2024-02-19T06:24:27.792Z,13.38
2024-02-19T06:26:54.585Z,12.56
2024-02-19T06:29:21.249Z,12.50
2024-02-19T06:31:51.478Z,12.62
2024-02-19T06:34:18.773Z,12.60
2024-02-19T06:36:45.827Z,12.97
2024-02-19T06:39:13.291Z,13.02
2024-02-19T06:41:40.133Z,13.52
2024-02-19T06:44:07.285Z,12.90
2024-02-19T06:46:34.086Z,12.59
2024-02-19T06:49:01.566Z,12.69
2024-02-19T06:51:28.837Z,13.62
2024-02-19T06:53:55.785Z,12.95
2024-02-19T06:56:22.971Z,12.80
2024-02-19T06:58:49.850Z,12.94
2024-02-19T07:01:16.993Z,12.95
2024-02-19T07:03:44.204Z,12.82
2024-02-19T07:06:11.170Z,12.86
2024-02-19T07:08:37.946Z,12.58
2024-02-19T07:11:04.925Z,12.30
2024-02-19T07:13:31.957Z,12.71
2024-02-19T07:15:58.810Z,12.47
2024-02-19T07:18:26.392Z,12.75
2024-02-19T07:20:53.551Z,12.79
2024-02-19T07:23:22.429Z,12.88
2024-02-19T07:25:49.995Z,13.04
2024-02-19T07:28:17.771Z,12.58
2024-02-19T07:30:44.630Z,12.85
2024-02-19T07:33:11.572Z,12.75
2024-02-19T07:35:39.429Z,12.87
2024-02-19T07:38:06.456Z,12.84
2024-02-19T07:40:35.732Z,13.22
2024-02-19T07:43:03.821Z,12.83
2024-02-19T07:45:30.578Z,13.48
2024-02-19T07:47:57.883Z,13.31
2024-02-19T07:50:24.703Z,13.93
2024-02-19T07:52:51.501Z,13.78
2024-02-19T07:55:18.490Z,13.88
2024-02-19T07:57:45.409Z,14.29
2024-02-19T08:00:12.416Z,14.13
2024-02-19T08:02:39.264Z,14.13
2024-02-19T08:05:07.018Z,13.91
2024-02-19T08:07:34.106Z,13.72
2024-02-19T08:10:00.935Z,13.86
2024-02-19T08:12:27.918Z,14.34
2024-02-19T08:14:55.501Z,15.89
2024-02-19T08:17:22.321Z,15.66
2024-02-19T08:19:49.177Z,15.66
2024-02-19T08:22:16.042Z,15.72
2024-02-19T08:24:43.049Z,16.62
2024-02-19T08:27:09.900Z,18.28
2024-02-19T08:29:36.614Z,18.30
2024-02-19T08:32:03.585Z,17.27
2024-02-19T08:34:30.388Z,16.11
2024-02-19T08:36:57.386Z,16.90
2024-02-19T08:39:24.424Z,17.19
2024-02-19T08:41:51.356Z,17.00
2024-02-19T08:44:18.212Z,17.82
2024-02-19T08:46:45.012Z,17.57
2024-02-19T08:49:12.863Z,16.17
2024-02-19T08:51:39.915Z,15.86
2024-02-19T08:54:07.413Z,16.06
2024-02-19T08:56:34.362Z,16.18
2024-02-19T08:59:05.049Z,14.81
2024-02-19T09:01:32.099Z,15.25
2024-02-19T09:03:58.961Z,15.23
2024-02-19T09:06:25.885Z,14.99
2024-02-19T09:08:52.727Z,14.95
2024-02-19T09:11:19.682Z,14.47
2024-02-19T09:13:47.588Z,14.11
2024-02-19T09:16:15.032Z,13.54
2024-02-19T09:18:42.128Z,13.75
2024-02-19T09:21:09.258Z,14.37
2024-02-19T09:23:36.922Z,14.26
2024-02-19T09:26:04.057Z,14.34
2024-02-19T09:28:31.101Z,14.78
2024-02-19T09:30:58.010Z,13.82
2024-02-19T09:33:25.722Z,13.82
2024-02-19T09:35:52.759Z,13.77
2024-02-19T09:38:20.199Z,13.57
2024-02-19T09:40:50.696Z,13.55
2024-02-19T09:43:18.603Z,13.96
2024-02-19T09:45:45.812Z,13.95
2024-02-19T09:48:14.009Z,13.79
2024-02-19T09:50:48.511Z,13.43
2024-02-19T09:53:29.032Z,13.41
2024-02-19T09:55:57.423Z,13.10
2024-02-19T09:58:25.030Z,13.18
2024-02-19T10:00:52.243Z,13.19
2024-02-19T10:03:20.325Z,13.26
2024-02-19T10:05:48.869Z,13.55
2024-02-19T10:08:16.485Z,13.31
2024-02-19T10:10:46.616Z,13.24
2024-02-19T10:13:14.645Z,13.77
2024-02-19T10:15:43.099Z,14.21
2024-02-19T10:18:15.763Z,13.76
2024-02-19T10:20:46.062Z,13.70
2024-02-19T10:23:13.179Z,13.82
2024-02-19T10:25:40.378Z,13.37
2024-02-19T10:28:09.619Z,13.18
2024-02-19T10:30:37.022Z,13.27
2024-02-19T10:33:04.299Z,12.96
2024-02-19T10:35:32.478Z,13.57
2024-02-19T10:38:02.985Z,13.29
2024-02-19T10:40:29.960Z,13.29
2024-02-19T10:42:57.804Z,12.97
2024-02-19T10:45:25.771Z,13.17
2024-02-19T10:47:56.668Z,13.00
2024-02-19T10:50:23.967Z,13.73
2024-02-19T10:52:52.169Z,13.30
2024-02-19T10:55:32.727Z,13.22
2024-02-19T10:58:16.468Z,13.57
2024-02-19T11:00:45.431Z,13.53
2024-02-19T11:03:14.722Z,12.49
2024-02-19T11:05:46.644Z,12.52
2024-02-19T11:08:25.461Z,12.51
2024-02-19T11:10:56.923Z,12.52
2024-02-19T11:13:28.032Z,13.06
2024-02-19T11:15:55.192Z,12.61
2024-02-19T11:18:22.403Z,12.95
2024-02-19T11:20:50.710Z,12.90
2024-02-19T11:23:18.683Z,13.20
2024-02-19T11:25:47.427Z,13.04
2024-02-19T11:28:14.754Z,13.66
2024-02-19T11:30:41.835Z,13.47
2024-02-19T11:33:10.890Z,12.91
2024-02-19T11:35:38.925Z,13.67
2024-02-19T11:38:06.073Z,12.95
2024-02-19T11:40:33.564Z,13.00
2024-02-19T11:43:02.306Z,13.31
2024-02-19T11:45:30.648Z,13.18
2024-02-19T11:47:58.521Z,13.56
2024-02-19T11:50:32.182Z,12.88
2024-02-19T11:53:05.791Z,12.86
2024-02-19T11:55:35.093Z,13.05
2024-02-19T11:58:03.530Z,13.54
2024-02-19T12:00:31.726Z,13.65
2024-02-19T12:03:00.659Z,13.80
2024-02-19T12:05:28.168Z,14.00
2024-02-19T12:07:55.289Z,14.12
2024-02-19T12:10:22.680Z,13.81
2024-02-19T12:12:50.792Z,14.44
2024-02-19T12:15:17.750Z,13.87
2024-02-19T12:17:44.973Z,13.43
2024-02-19T12:20:13.059Z,13.83
2024-02-19T12:22:41.817Z,13.74
2024-02-19T12:25:09.260Z,13.48
2024-02-19T12:27:36.128Z,13.65
2024-02-19T12:30:03.632Z,13.40
2024-02-19T12:32:30.635Z,13.58
2024-02-19T12:34:57.922Z,14.05
2024-02-19T12:37:25.187Z,13.48
2024-02-19T12:39:52.010Z,13.70
2024-02-19T12:42:19.117Z,13.66
2024-02-19T12:44:45.848Z,13.17
2024-02-19T12:47:12.755Z,13.45
2024-02-19T12:49:40.330Z,13.24
2024-02-19T12:52:09.838Z,13.40
2024-02-19T12:54:37.267Z,13.31
2024-02-19T12:57:07.038Z,13.13
2024-02-19T12:59:34.307Z,13.49
2024-02-19T13:02:01.324Z,13.01
2024-02-19T13:04:28.611Z,13.24
2024-02-19T13:07:01.250Z,13.12
2024-02-19T13:09:35.880Z,13.44
2024-02-19T13:12:10.280Z,13.15
2024-02-19T13:14:37.827Z,13.28
2024-02-19T13:17:13.162Z,13.15
2024-02-19T13:19:47.409Z,13.19
2024-02-19T13:22:14.629Z,13.89
2024-02-19T13:24:41.943Z,13.70
2024-02-19T13:27:09.619Z,13.58
2024-02-19T13:29:36.700Z,13.86
2024-02-19T13:32:03.907Z,14.24
2024-02-19T13:34:31.329Z,14.45
2024-02-19T13:36:58.312Z,14.02
2024-02-19T13:39:26.308Z,14.47
2024-02-19T13:41:53.767Z,13.82
2024-02-19T13:44:20.878Z,14.68
2024-02-19T13:46:48.044Z,13.51
2024-02-19T13:49:15.599Z,14.48
2024-02-19T13:51:43.060Z,14.87
2024-02-19T13:54:10.396Z,14.49
2024-02-19T13:56:37.299Z,14.47
2024-02-19T13:59:06.853Z,14.62
2024-02-19T14:01:35.568Z,14.65
2024-02-19T14:04:05.156Z,13.92
2024-02-19T14:06:32.767Z,14.18
2024-02-19T14:09:00.733Z,13.70
2024-02-19T14:11:27.810Z,14.31
2024-02-19T14:14:02.024Z,14.24
2024-02-19T14:16:31.296Z,14.19
2024-02-19T14:19:00.258Z,14.06
2024-02-19T14:21:27.642Z,14.45
2024-02-19T14:23:55.649Z,14.50
2024-02-19T14:26:24.936Z,14.88
2024-02-19T14:28:54.090Z,13.96
2024-02-19T14:31:22.193Z,14.51
2024-02-19T14:33:51.272Z,15.06
2024-02-19T14:36:18.481Z,14.04
2024-02-19T14:38:45.420Z,14.60
2024-02-19T14:41:15.802Z,15.11
2024-02-19T14:43:43.246Z,14.72
2024-02-19T14:46:10.781Z,14.45
2024-02-19T14:48:39.390Z,13.67
2024-02-19T14:51:07.085Z,14.66
2024-02-19T14:53:34.402Z,14.13
2024-02-19T14:56:01.443Z,14.36
2024-02-19T14:58:28.316Z,14.07
2024-02-19T15:00:55.311Z,14.06
2024-02-19T15:03:22.397Z,14.10
2024-02-19T15:05:50.655Z,13.59
2024-02-19T15:08:21.164Z,14.24
2024-02-19T15:10:48.551Z,14.08
2024-02-19T15:13:16.259Z,14.06
2024-02-19T15:15:43.147Z,13.39
2024-02-19T15:18:11.917Z,13.56
2024-02-19T15:20:38.804Z,14.58
2024-02-19T15:23:05.523Z,13.35
2024-02-19T15:25:32.686Z,14.06
2024-02-19T15:28:00.145Z,13.92
2024-02-19T15:30:27.380Z,13.79
2024-02-19T15:32:54.366Z,14.07
2024-02-19T15:35:21.514Z,14.08
2024-02-19T15:37:48.315Z,14.03
2024-02-19T15:40:15.139Z,13.99
2024-02-19T15:42:41.838Z,13.99
2024-02-19T15:45:09.389Z,14.46
2024-02-19T15:47:36.448Z,14.06
2024-02-19T15:50:07.674Z,14.33
2024-02-19T15:52:35.100Z,14.52
2024-02-19T15:55:02.249Z,14.30
2024-02-19T15:57:29.346Z,13.95
2024-02-19T15:59:56.211Z,14.43
2024-02-19T16:02:23.123Z,14.47
2024-02-19T16:04:51.033Z,14.49
2024-02-19T16:07:20.385Z,14.65
2024-02-19T16:09:49.650Z,14.47
2024-02-19T16:12:16.548Z,14.56
2024-02-19T16:14:44.656Z,14.30
2024-02-19T16:17:11.522Z,14.50
2024-02-19T16:19:39.110Z,14.37
2024-02-19T16:22:06.271Z,14.09
2024-02-19T16:24:35.892Z,13.56
2024-02-19T16:27:05.089Z,14.28
2024-02-19T16:29:32.343Z,14.20
2024-02-19T16:31:59.372Z,14.44
2024-02-19T16:34:26.602Z,13.89
2024-02-19T16:36:53.893Z,13.93
2024-02-19T16:39:21.179Z,14.16
2024-02-19T16:41:48.071Z,13.87
2024-02-19T16:44:14.928Z,14.01
2024-02-19T16:46:41.921Z,14.38
2024-02-19T16:49:08.931Z,13.99
2024-02-19T16:51:43.025Z,14.12
2024-02-19T16:54:10.380Z,14.13
2024-02-19T16:56:37.358Z,14.30
2024-02-19T16:59:04.391Z,13.70
2024-02-19T17:01:31.870Z,14.00
2024-02-19T17:03:58.992Z,14.24
2024-02-19T17:06:25.806Z,14.21
2024-02-19T17:08:52.865Z,14.37
2024-02-19T17:11:22.750Z,13.99
2024-02-19T17:13:49.734Z,13.87
2024-02-19T17:16:16.548Z,14.07
2024-02-19T17:18:43.826Z,13.90
2024-02-19T17:21:11.085Z,13.31
2024-02-19T17:23:37.958Z,13.73
2024-02-19T17:26:04.979Z,13.89
2024-02-19T17:28:35.931Z,14.12
2024-02-19T17:31:05.142Z,13.87
2024-02-19T17:33:32.536Z,13.60
2024-02-19T17:35:59.644Z,13.18
2024-02-19T17:38:26.555Z,13.32
2024-02-19T17:40:55.610Z,13.82
2024-02-19T17:43:22.664Z,13.84
2024-02-19T17:45:49.645Z,13.70
2024-02-19T17:48:16.581Z,13.87
2024-02-19T17:50:43.499Z,12.96
2024-02-19T17:53:10.454Z,13.22
2024-02-19T17:55:37.431Z,13.50
2024-02-19T17:58:04.589Z,13.41
2024-02-19T18:00:31.559Z,13.39
2024-02-19T18:03:01.994Z,13.12
2024-02-19T18:05:29.401Z,13.50
2024-02-19T18:07:56.381Z,13.66
2024-02-19T18:10:23.349Z,13.79
2024-02-19T18:12:50.457Z,13.88
2024-02-19T18:15:22.350Z,13.96
2024-02-19T18:17:53.504Z,13.33
2024-02-19T18:20:21.372Z,12.75
2024-02-19T18:22:48.303Z,13.25
2024-02-19T18:25:15.224Z,13.57
2024-02-19T18:27:42.612Z,13.39
2024-02-19T18:30:13.542Z,13.69
2024-02-19T18:32:42.685Z,13.58
2024-02-19T18:35:12.848Z,13.64
2024-02-19T18:37:39.840Z,13.28
2024-02-19T18:40:08.461Z,13.55
2024-02-19T18:42:36.500Z,13.66
2024-02-19T18:45:04.024Z,13.68
2024-02-19T18:47:31.496Z,13.52
2024-02-19T18:49:58.679Z,13.53
2024-02-19T18:52:25.848Z,13.82
2024-02-19T18:54:53.298Z,13.88
2024-02-19T18:57:20.425Z,13.35
2024-02-19T18:59:47.283Z,13.58
2024-02-19T19:02:14.264Z,13.57
2024-02-19T19:04:45.904Z,13.14
2024-02-19T19:07:13.450Z,13.63
2024-02-19T19:09:43.265Z,13.55
2024-02-19T19:12:11.684Z,13.81
2024-02-19T19:14:38.973Z,13.76
2024-02-19T19:17:06.466Z,13.89
2024-02-19T19:19:33.641Z,13.78
2024-02-19T19:22:00.678Z,13.91
2024-02-19T19:24:27.545Z,13.85
2024-02-19T19:26:54.328Z,14.14
2024-02-19T19:29:22.155Z,14.18
2024-02-19T19:31:49.596Z,13.92
2024-02-19T19:34:17.891Z,14.05
2024-02-19T19:36:47.661Z,13.90
2024-02-19T19:39:14.826Z,13.73
2024-02-19T19:41:41.683Z,13.57
2024-02-19T19:44:12.006Z,13.24
2024-02-19T19:46:39.832Z,13.17
2024-02-19T19:49:06.783Z,12.88
2024-02-19T19:51:33.783Z,13.54
2024-02-19T19:54:00.522Z,13.63
2024-02-19T19:56:27.362Z,13.74
2024-02-19T19:58:56.448Z,13.73
2024-02-19T20:01:23.738Z,13.81
2024-02-19T20:03:51.000Z,13.75
2024-02-19T20:06:19.125Z,13.51
2024-02-19T20:08:48.870Z,13.66
2024-02-19T20:11:16.986Z,13.63
2024-02-19T20:13:43.759Z,13.87
2024-02-19T20:16:10.696Z,13.21
2024-02-19T20:18:38.114Z,13.65
2024-02-19T20:21:05.826Z,13.63
2024-02-19T20:23:33.545Z,14.07
2024-02-19T20:26:00.585Z,13.91
2024-02-19T20:28:27.537Z,13.32
2024-02-19T20:30:54.649Z,13.14
2024-02-19T20:33:21.729Z,12.94
2024-02-19T20:35:48.956Z,12.78
2024-02-19T20:38:15.852Z,12.83
2024-02-19T20:40:43.104Z,13.02
2024-02-19T20:43:11.699Z,13.07
2024-02-19T20:45:40.705Z,13.34
2024-02-19T20:48:08.205Z,12.82
2024-02-19T20:50:35.142Z,12.99
2024-02-19T20:53:02.046Z,13.12
2024-02-19T20:55:30.081Z,13.25
2024-02-19T20:57:57.863Z,12.98
2024-02-19T21:00:26.504Z,12.71
2024-02-19T21:02:53.705Z,12.55
2024-02-19T21:05:21.215Z,12.70
2024-02-19T21:07:48.214Z,12.69
2024-02-19T21:10:15.159Z,12.71
2024-02-19T21:12:42.582Z,12.84
2024-02-19T21:15:12.820Z,12.79
2024-02-19T21:17:39.734Z,12.46
2024-02-19T21:20:07.445Z,12.81
2024-02-19T21:22:34.702Z,12.66
2024-02-19T21:25:01.923Z,13.38
2024-02-19T21:27:31.978Z,13.04
2024-02-19T21:29:59.022Z,13.37
2024-02-19T21:32:30.053Z,12.59
2024-02-19T21:35:01.296Z,12.44
2024-02-19T21:37:31.067Z,12.40
2024-02-19T21:39:58.374Z,12.39
2024-02-19T21:42:26.084Z,12.71
2024-02-19T21:44:54.025Z,12.62
2024-02-19T21:47:23.981Z,12.40
2024-02-19T21:49:53.759Z,12.07
2024-02-19T21:52:20.669Z,12.43
2024-02-19T21:54:47.609Z,12.49
2024-02-19T21:57:14.352Z,12.84
2024-02-19T21:59:41.248Z,12.83
2024-02-19T22:02:08.269Z,12.34
2024-02-19T22:04:36.354Z,12.66
2024-02-19T22:07:03.519Z,12.28
2024-02-19T22:09:31.188Z,12.21
2024-02-19T22:11:57.902Z,12.66
2024-02-19T22:14:25.596Z,12.25
2024-02-19T22:16:52.321Z,12.05
2024-02-19T22:19:19.319Z,12.27
2024-02-19T22:21:46.204Z,12.49
2024-02-19T22:24:13.913Z,12.69
2024-02-19T22:26:40.797Z,12.65
2024-02-19T22:29:07.823Z,12.06
2024-02-19T22:31:35.045Z,12.17
2024-02-19T22:34:02.148Z,12.64
2024-02-19T22:36:29.039Z,12.51
2024-02-19T22:38:55.790Z,12.99
2024-02-19T22:41:22.475Z,12.90
2024-02-19T22:43:49.310Z,12.75
2024-02-19T22:46:16.337Z,12.65
2024-02-19T22:48:43.175Z,12.64
2024-02-19T22:51:10.019Z,12.81
2024-02-19T22:53:37.654Z,12.85
2024-02-19T22:56:09.199Z,12.70
2024-02-19T22:58:36.703Z,12.66
2024-02-19T23:01:05.425Z,12.65
2024-02-19T23:03:33.050Z,12.77
2024-02-19T23:05:59.914Z,12.33
2024-02-19T23:08:27.144Z,12.65
2024-02-19T23:10:55.849Z,12.89
2024-02-19T23:13:22.927Z,12.72
2024-02-19T23:15:49.808Z,12.41
2024-02-19T23:18:16.762Z,12.25
2024-02-19T23:20:43.570Z,12.08
2024-02-19T23:23:10.403Z,12.10
2024-02-19T23:25:37.238Z,12.13
2024-02-19T23:28:04.825Z,11.94
2024-02-19T23:30:31.689Z,11.94
2024-02-19T23:32:59.559Z,12.66
2024-02-19T23:35:29.195Z,12.53
2024-02-19T23:37:56.299Z,12.00
2024-02-19T23:40:23.214Z,12.08
2024-02-19T23:42:49.984Z,12.48
2024-02-19T23:45:16.941Z,12.77
2024-02-19T23:47:43.858Z,13.33
2024-02-19T23:50:11.293Z,12.97
2024-02-19T23:52:42.018Z,12.64
2024-02-19T23:55:14.784Z,12.12
2024-02-19T23:57:41.809Z,13.07
